Sichomovi, Arizona
Current Conditions -  °F | °C
As of 10:56 PM on Wednesday 17 Dec 2014 (Local Time) from KINW Reporting Station
Overcast Overcast  
Wind Chill: 36°   Ceiling: 8000
Heat Index: 36°   Visibility: 10mi
Dew Point: 33°   Wind: 3mph
Humidity: 89%   Direction: 170°S
Pressure: 30.12"   Gusts: NA
Location:  35.9347°N, 110.453°W
Report Text: KINW 180556Z AUTO 17003KT 10SM FEW060 OVC080 02/01 A3012 RMK AO2 SLP200 T00220006 10056 20011 51012
Loading
Personal Weather Stations






























Interactive Weather Map New forecast layout! Learn more

10-Day Weather Forecast

Advertisements
Track Severe Weather on mobile